createdAt,value
2022-09-07T00:02:17.258Z,1.77
2022-09-07T00:04:44.217Z,1.35
2022-09-07T00:07:13.012Z,2.38
2022-09-07T00:09:39.841Z,1.98
2022-09-07T00:12:06.376Z,1.98
2022-09-07T00:14:33.114Z,1.90
2022-09-07T00:16:59.577Z,2.50
2022-09-07T00:19:26.042Z,2.25
2022-09-07T00:21:53.358Z,1.95
2022-09-07T00:24:20.340Z,3.60
2022-09-07T00:26:46.826Z,2.22
2022-09-07T00:29:13.337Z,2.83
2022-09-07T00:31:40.017Z,1.95
2022-09-07T00:34:09.022Z,3.03
2022-09-07T00:36:39.418Z,3.10
2022-09-07T00:39:06.265Z,1.70
2022-09-07T00:41:34.131Z,3.25
2022-09-07T00:44:38.929Z,3.17
2022-09-07T00:47:11.820Z,2.38
2022-09-07T00:49:38.950Z,2.83
2022-09-07T00:52:07.082Z,3.20
2022-09-07T00:54:41.033Z,2.70
2022-09-07T00:57:08.312Z,3.10
2022-09-07T00:59:39.426Z,2.97
2022-09-07T01:02:06.320Z,2.75
2022-09-07T01:04:39.363Z,3.33
2022-09-07T01:07:06.176Z,2.17
2022-09-07T01:10:15.814Z,2.65
2022-09-07T01:12:43.038Z,4.30
2022-09-07T01:15:11.118Z,4.68
2022-09-07T01:18:00.618Z,3.50
2022-09-07T01:20:30.072Z,4.35
2022-09-07T01:23:26.614Z,4.40
2022-09-07T01:26:04.439Z,4.97
2022-09-07T01:28:32.524Z,3.97
2022-09-07T01:31:11.817Z,4.28
2022-09-07T01:34:00.182Z,3.35
2022-09-07T01:37:24.426Z,4.53
2022-09-07T01:40:10.188Z,4.03
2022-09-07T01:42:56.682Z,4.72
2022-09-07T01:45:30.320Z,4.30
2022-09-07T01:47:58.787Z,4.57
2022-09-07T01:50:45.032Z,4.35
2022-09-07T01:53:36.349Z,4.28
2022-09-07T01:56:19.470Z,3.47
2022-09-07T01:58:49.878Z,3.65
2022-09-07T02:01:29.749Z,2.53
2022-09-07T02:04:10.606Z,4.25
2022-09-07T02:06:50.095Z,4.47
2022-09-07T02:09:32.761Z,2.55
2022-09-07T02:12:03.569Z,3.53
2022-09-07T02:14:49.380Z,2.58
2022-09-07T02:17:45.692Z,2.33
2022-09-07T02:20:25.166Z,4.60
2022-09-07T02:23:01.426Z,4.95
2022-09-07T02:25:33.840Z,5.57
2022-09-07T02:28:17.305Z,4.20
2022-09-07T02:30:44.251Z,2.83
2022-09-07T02:33:10.831Z,3.55
2022-09-07T02:35:40.115Z,4.63
2022-09-07T02:38:07.969Z,5.57
2022-09-07T02:40:35.016Z,5.30
2022-09-07T02:43:05.394Z,5.45
2022-09-07T02:45:55.894Z,4.07
2022-09-07T02:48:45.391Z,3.25
2022-09-07T02:51:15.345Z,3.13
2022-09-07T02:54:01.278Z,2.60
2022-09-07T02:56:40.410Z,2.13
2022-09-07T02:59:37.044Z,2.92
2022-09-07T03:02:08.421Z,2.45
2022-09-07T03:05:07.888Z,5.28
2022-09-07T03:07:53.950Z,4.25
2022-09-07T03:10:20.735Z,3.13
2022-09-07T03:12:51.161Z,3.95
2022-09-07T03:15:22.242Z,3.47
2022-09-07T03:17:51.366Z,2.55
2022-09-07T03:20:21.628Z,5.10
2022-09-07T03:22:53.280Z,4.45
2022-09-07T03:25:19.980Z,4.38
2022-09-07T03:27:46.558Z,3.47
2022-09-07T03:30:14.750Z,2.55
2022-09-07T03:32:43.769Z,3.50
2022-09-07T03:35:10.373Z,2.65
2022-09-07T03:37:37.715Z,3.10
2022-09-07T03:40:13.735Z,4.80
2022-09-07T03:42:40.673Z,2.75
2022-09-07T03:45:08.079Z,5.50
2022-09-07T03:47:35.627Z,4.93
2022-09-07T03:50:02.177Z,4.70
2022-09-07T03:52:29.414Z,3.83
2022-09-07T03:54:56.297Z,4.07
2022-09-07T03:57:23.429Z,5.30
2022-09-07T03:59:50.583Z,4.30
2022-09-07T04:02:17.478Z,3.38
2022-09-07T04:04:47.312Z,2.67
2022-09-07T04:07:15.016Z,2.92
2022-09-07T04:09:42.576Z,3.20
2022-09-07T04:12:12.378Z,3.05
2022-09-07T04:14:38.886Z,3.53
2022-09-07T04:17:05.444Z,3.80
2022-09-07T04:19:32.069Z,4.50
2022-09-07T04:22:03.150Z,4.82
2022-09-07T04:24:31.795Z,6.10
2022-09-07T04:26:59.539Z,6.45
2022-09-07T04:29:26.156Z,7.93
2022-09-07T04:31:52.623Z,7.93
2022-09-07T04:34:20.965Z,4.63
2022-09-07T04:36:51.135Z,6.80
2022-09-07T04:39:17.651Z,10.18
2022-09-07T04:41:44.160Z,9.70
2022-09-07T04:44:14.814Z,10.73
2022-09-07T04:46:43.422Z,8.02
2022-09-07T04:49:13.751Z,5.63
2022-09-07T04:51:42.942Z,10.25
2022-09-07T04:54:10.039Z,7.05
2022-09-07T04:56:38.799Z,8.40
2022-09-07T04:59:07.781Z,8.30
2022-09-07T05:01:34.560Z,9.73
2022-09-07T05:04:03.193Z,5.35
2022-09-07T05:06:32.183Z,5.55
2022-09-07T05:08:59.444Z,8.50
2022-09-07T05:11:29.508Z,7.93
2022-09-07T05:14:02.822Z,9.52
2022-09-07T05:16:30.474Z,9.45
2022-09-07T05:19:02.379Z,7.57
2022-09-07T05:21:34.087Z,8.07
2022-09-07T05:24:01.093Z,7.72
2022-09-07T05:26:29.958Z,6.32
2022-09-07T05:31:42.995Z,6.80
2022-09-07T05:37:01.325Z,3.65
2022-09-07T05:39:28.133Z,4.65
2022-09-07T05:41:54.935Z,6.55
2022-09-07T05:47:08.584Z,3.08
2022-09-07T05:49:35.156Z,3.35
2022-09-07T05:52:07.634Z,4.15
2022-09-07T05:54:35.802Z,5.35
2022-09-07T05:57:03.715Z,4.20
2022-09-07T05:59:30.399Z,4.07
2022-09-07T06:02:00.045Z,3.42
2022-09-07T06:04:26.662Z,3.72
2022-09-07T06:12:32.074Z,3.90
2022-09-07T06:14:58.610Z,3.70
2022-09-07T06:17:28.842Z,1.75
2022-09-07T06:20:02.359Z,2.97
2022-09-07T06:22:31.034Z,2.80
2022-09-07T06:25:00.149Z,3.20
2022-09-07T06:27:29.367Z,4.55
2022-09-07T06:29:56.391Z,5.13
2022-09-07T06:35:10.074Z,4.82
2022-09-07T06:37:40.256Z,5.70
2022-09-07T06:40:09.217Z,4.78
2022-09-07T06:42:36.031Z,4.38
2022-09-07T06:45:05.282Z,3.90
2022-09-07T06:47:36.882Z,6.70
2022-09-07T06:50:03.621Z,3.50
2022-09-07T06:55:16.713Z,3.72
2022-09-07T06:57:43.225Z,3.83
2022-09-07T07:00:13.493Z,6.75
2022-09-07T07:02:40.047Z,4.78
2022-09-07T07:05:06.803Z,7.57
2022-09-07T07:07:35.312Z,4.43
2022-09-07T07:10:01.843Z,6.43
2022-09-07T07:14:58.944Z,7.20
2022-09-07T07:17:25.406Z,6.40
2022-09-07T07:19:51.961Z,11.98
2022-09-07T07:22:42.955Z,12.30
2022-09-07T07:25:07.947Z,6.35
2022-09-07T07:27:34.505Z,9.38
2022-09-07T07:30:03.296Z,6.90
2022-09-07T07:32:29.797Z,8.25
2022-09-07T07:34:56.227Z,10.65
2022-09-07T07:37:27.847Z,11.68
2022-09-07T07:42:41.788Z,12.43
2022-09-07T07:48:00.920Z,8.88
2022-09-07T07:50:31.582Z,9.30
2022-09-07T07:55:50.309Z,8.95
2022-09-07T07:58:19.576Z,7.38
2022-09-07T08:00:55.572Z,8.90
2022-09-07T08:03:23.882Z,7.55
2022-09-07T08:05:52.904Z,5.75
2022-09-07T08:08:22.103Z,6.90
2022-09-07T08:10:51.215Z,6.72
2022-09-07T08:13:20.686Z,7.47
2022-09-07T08:15:47.408Z,5.88
2022-09-07T08:18:16.394Z,9.95
2022-09-07T08:20:45.183Z,7.53
2022-09-07T08:23:11.798Z,9.32
2022-09-07T08:25:38.520Z,8.05
2022-09-07T08:28:06.682Z,9.10
2022-09-07T08:30:35.289Z,10.18
2022-09-07T08:33:04.040Z,7.75
2022-09-07T08:35:30.531Z,9.25
2022-09-07T08:37:56.975Z,10.48
2022-09-07T08:40:23.715Z,9.50
2022-09-07T08:43:12.290Z,10.05
2022-09-07T08:45:51.401Z,9.65
2022-09-07T08:48:20.983Z,9.15
2022-09-07T08:50:59.893Z,5.50
2022-09-07T08:53:26.579Z,6.70
2022-09-07T08:55:59.749Z,7.13
2022-09-07T08:58:51.220Z,5.97
2022-09-07T09:01:31.262Z,3.88
2022-09-07T09:06:54.894Z,2.55
2022-09-07T09:09:38.872Z,2.50
2022-09-07T09:12:16.755Z,2.65
2022-09-07T09:15:05.849Z,1.90
2022-09-07T09:17:41.782Z,2.95
2022-09-07T09:20:24.226Z,2.80
2022-09-07T09:23:18.940Z,2.72
2022-09-07T09:25:55.307Z,2.63
2022-09-07T09:28:22.208Z,1.65
2022-09-07T09:30:51.314Z,2.03
2022-09-07T09:33:26.364Z,1.70
2022-09-07T09:35:57.388Z,1.77
2022-09-07T09:38:44.375Z,2.25
2022-09-07T09:41:15.317Z,1.80
2022-09-07T09:43:56.004Z,1.80
2022-09-07T09:46:29.990Z,1.85
2022-09-07T09:49:06.671Z,2.00
2022-09-07T09:54:33.080Z,1.90
2022-09-07T09:57:01.019Z,1.92
2022-09-07T10:05:30.361Z,1.50
2022-09-07T10:07:57.262Z,1.80
2022-09-07T10:10:25.340Z,1.70
2022-09-07T10:12:54.141Z,1.90
2022-09-07T10:15:40.106Z,1.38
2022-09-07T10:18:11.443Z,1.40
2022-09-07T10:20:38.427Z,1.70
2022-09-07T10:23:06.199Z,1.95
2022-09-07T10:25:34.826Z,1.55
2022-09-07T10:28:14.420Z,1.63
2022-09-07T10:31:15.463Z,1.30
2022-09-07T10:34:26.846Z,2.00
2022-09-07T10:37:04.135Z,1.50
2022-09-07T10:39:44.045Z,1.88
2022-09-07T10:43:20.710Z,2.38
2022-09-07T10:45:54.833Z,1.40
2022-09-07T10:48:40.991Z,1.40
2022-09-07T10:51:40.114Z,1.75
2022-09-07T10:54:40.675Z,1.30
2022-09-07T10:57:19.366Z,1.60
2022-09-07T11:00:10.885Z,1.48
2022-09-07T11:05:56.243Z,1.73
2022-09-07T11:14:47.563Z,1.80
2022-09-07T11:17:20.773Z,2.08
2022-09-07T11:19:56.555Z,1.58
2022-09-07T11:22:28.033Z,1.60
2022-09-07T11:27:59.186Z,1.70
2022-09-07T11:30:37.492Z,1.60
2022-09-07T11:33:23.062Z,2.13
2022-09-07T11:36:17.719Z,2.13
2022-09-07T11:39:08.931Z,1.80
2022-09-07T11:41:41.877Z,1.75
2022-09-07T11:44:40.210Z,1.83
2022-09-07T11:47:26.994Z,2.10
2022-09-07T11:49:59.395Z,1.80
2022-09-07T11:52:39.403Z,1.45
2022-09-07T11:55:09.155Z,2.03
2022-09-07T11:58:06.447Z,1.77
2022-09-07T12:00:55.822Z,1.60
2022-09-07T12:03:42.753Z,2.10
2022-09-07T12:06:22.442Z,2.20
2022-09-07T12:09:15.684Z,1.70
2022-09-07T12:12:04.662Z,2.00
2022-09-07T12:15:09.924Z,3.20
2022-09-07T12:18:30.493Z,2.10
2022-09-07T12:20:57.053Z,1.95
2022-09-07T12:23:31.744Z,1.88
2022-09-07T12:26:38.110Z,2.30
2022-09-07T12:29:20.462Z,2.00
2022-09-07T12:32:52.692Z,2.35
2022-09-07T12:34:57.400Z,2.50
2022-09-07T12:37:29.477Z,1.75
2022-09-07T12:40:27.268Z,2.33
2022-09-07T12:43:12.358Z,1.90
2022-09-07T12:45:42.163Z,2.55
2022-09-07T12:48:22.233Z,1.73
2022-09-07T12:51:08.457Z,1.90
2022-09-07T12:53:57.955Z,2.20
2022-09-07T13:00:07.334Z,2.63
2022-09-07T13:06:13.066Z,2.03
2022-09-07T13:09:20.819Z,1.90
2022-09-07T13:11:47.445Z,1.83
2022-09-07T13:14:14.126Z,1.80
2022-09-07T13:19:50.738Z,2.40
2022-09-07T13:22:32.402Z,2.00
2022-09-07T13:25:01.581Z,2.30
2022-09-07T13:27:52.057Z,2.03
2022-09-07T13:36:21.277Z,2.03
2022-09-07T13:38:50.206Z,2.05
2022-09-07T13:41:21.598Z,1.60
2022-09-07T13:43:52.459Z,2.40
2022-09-07T13:46:34.159Z,2.10
2022-09-07T13:49:31.680Z,1.95
2022-09-07T13:52:08.158Z,2.20
2022-09-07T13:54:59.112Z,2.20
2022-09-07T13:57:33.151Z,2.08
2022-09-07T14:00:01.556Z,3.20
2022-09-07T14:02:32.483Z,3.95
2022-09-07T14:05:02.945Z,2.63
2022-09-07T14:07:33.655Z,3.28
2022-09-07T14:10:10.367Z,3.20
2022-09-07T14:12:47.677Z,3.03
2022-09-07T14:15:27.556Z,3.42
2022-09-07T14:18:05.996Z,3.08
2022-09-07T14:20:40.134Z,3.03
2022-09-07T14:23:41.597Z,2.30
2022-09-07T14:26:22.414Z,3.40
2022-09-07T14:28:51.105Z,2.47
2022-09-07T14:31:19.789Z,2.72
2022-09-07T14:33:56.817Z,2.15
2022-09-07T14:36:45.407Z,2.72
2022-09-07T14:39:13.503Z,2.40
2022-09-07T14:41:43.316Z,2.55
2022-09-07T14:44:40.810Z,2.60
2022-09-07T14:47:33.521Z,2.20
2022-09-07T14:50:05.979Z,2.50
2022-09-07T14:52:43.602Z,2.22
2022-09-07T14:55:42.862Z,2.00
2022-09-07T14:58:15.253Z,3.17
2022-09-07T15:03:38.462Z,2.60
2022-09-07T15:06:05.710Z,2.72
2022-09-07T15:08:42.919Z,2.50
2022-09-07T15:11:35.924Z,2.58
2022-09-07T15:14:10.920Z,2.70
2022-09-07T15:16:40.454Z,2.85
2022-09-07T15:19:15.832Z,2.13
2022-09-07T15:21:43.280Z,2.35
2022-09-07T15:24:10.551Z,2.80
2022-09-07T15:29:24.486Z,2.10
2022-09-07T15:32:02.314Z,2.58
2022-09-07T15:34:34.352Z,1.75
2022-09-07T15:37:01.697Z,1.90
2022-09-07T15:39:34.385Z,2.38
2022-09-07T15:44:54.027Z,2.20
2022-09-07T15:50:11.686Z,2.03
2022-09-07T15:52:38.772Z,1.75
2022-09-07T15:55:05.827Z,3.13
2022-09-07T15:57:48.792Z,3.10
2022-09-07T16:00:19.650Z,2.63
2022-09-07T16:03:04.946Z,2.33
2022-09-07T16:05:50.198Z,2.35
2022-09-07T16:08:26.638Z,2.20
2022-09-07T16:10:54.086Z,2.80
2022-09-07T16:13:39.136Z,2.80
2022-09-07T16:17:26.559Z,3.55
2022-09-07T16:19:21.841Z,2.25
2022-09-07T16:21:49.567Z,2.67
2022-09-07T16:24:17.265Z,3.15
2022-09-07T16:26:45.660Z,2.45
2022-09-07T16:29:14.225Z,3.50
2022-09-07T16:32:44.016Z,2.67
2022-09-07T16:34:27.813Z,2.30
2022-09-07T16:36:55.467Z,2.97
2022-09-07T16:39:22.281Z,3.75
2022-09-07T16:41:54.757Z,3.80
2022-09-07T16:44:21.427Z,2.92
2022-09-07T16:46:47.871Z,2.47
2022-09-07T16:49:15.419Z,3.88
2022-09-07T16:51:42.123Z,3.47
2022-09-07T16:54:11.636Z,2.65
2022-09-07T16:57:26.368Z,3.00
2022-09-07T16:59:55.904Z,2.53
2022-09-07T17:02:22.448Z,2.17
2022-09-07T17:04:52.028Z,2.60
2022-09-07T17:07:18.576Z,1.90
2022-09-07T17:09:47.998Z,2.17
2022-09-07T17:12:18.981Z,2.17
2022-09-07T17:14:45.425Z,2.80
2022-09-07T17:17:11.823Z,1.95
2022-09-07T17:19:39.015Z,1.55
2022-09-07T17:22:09.211Z,1.67
2022-09-07T17:24:35.842Z,2.42
2022-09-07T17:27:03.297Z,2.28
2022-09-07T17:29:32.976Z,2.53
2022-09-07T17:34:45.892Z,2.97
2022-09-07T17:37:12.744Z,2.65
2022-09-07T17:39:39.250Z,3.08
2022-09-07T17:42:06.586Z,3.17
2022-09-07T17:44:37.987Z,2.65
2022-09-07T17:47:05.031Z,2.72
2022-09-07T17:49:31.892Z,3.08
2022-09-07T17:51:59.894Z,2.58
2022-09-07T17:54:26.728Z,2.50
2022-09-07T17:56:53.828Z,2.03
2022-09-07T18:02:07.567Z,2.83
2022-09-07T18:04:36.382Z,2.50
2022-09-07T18:07:05.097Z,2.50
2022-09-07T18:09:31.655Z,3.00
2022-09-07T18:12:00.579Z,2.58
2022-09-07T18:14:28.246Z,2.00
2022-09-07T18:16:55.053Z,2.17
2022-09-07T18:19:21.568Z,2.72
2022-09-07T18:21:48.728Z,1.83
2022-09-07T18:24:18.792Z,2.53
2022-09-07T18:26:53.801Z,2.17
2022-09-07T18:29:32.957Z,3.85
2022-09-07T18:32:03.175Z,3.88
2022-09-07T18:34:31.707Z,3.80
2022-09-07T18:36:59.246Z,3.42
2022-09-07T18:39:26.402Z,3.40
2022-09-07T18:41:54.300Z,2.65
2022-09-07T18:47:08.678Z,3.53
2022-09-07T18:49:35.156Z,2.95
2022-09-07T18:54:48.183Z,2.60
2022-09-07T18:57:15.494Z,2.65
2022-09-07T18:59:41.962Z,2.97
2022-09-07T19:02:09.712Z,2.63
2022-09-07T19:07:27.342Z,3.20
2022-09-07T19:09:56.008Z,3.10
2022-09-07T19:12:24.044Z,3.15
2022-09-07T19:14:52.575Z,2.30
2022-09-07T19:17:19.998Z,3.10
2022-09-07T19:19:46.764Z,2.55
2022-09-07T19:22:17.869Z,2.38
2022-09-07T19:24:44.255Z,2.72
2022-09-07T19:27:11.270Z,2.72
2022-09-07T19:29:37.684Z,2.10
2022-09-07T19:32:04.435Z,3.20
2022-09-07T19:34:41.670Z,2.30
2022-09-07T19:37:12.073Z,2.50
2022-09-07T19:39:41.134Z,2.38
2022-09-07T19:42:07.671Z,2.90
2022-09-07T19:44:35.027Z,2.13
2022-09-07T19:47:01.968Z,2.63
2022-09-07T19:49:28.868Z,3.17
2022-09-07T19:52:05.132Z,3.03
2022-09-07T19:54:31.556Z,2.88
2022-09-07T19:56:57.944Z,2.50
2022-09-07T19:59:25.115Z,2.25
2022-09-07T20:02:01.614Z,2.95
2022-09-07T20:04:30.298Z,2.40
2022-09-07T20:06:59.269Z,2.55
2022-09-07T20:09:25.876Z,2.70
2022-09-07T20:12:02.941Z,2.30
2022-09-07T20:14:29.404Z,3.17
2022-09-07T20:16:56.130Z,2.20
2022-09-07T20:19:22.735Z,3.22
2022-09-07T20:21:49.351Z,2.53
2022-09-07T20:24:23.422Z,2.65
2022-09-07T20:26:49.878Z,2.72
2022-09-07T20:29:27.338Z,2.30
2022-09-07T20:32:00.113Z,2.40
2022-09-07T20:34:27.809Z,2.47
2022-09-07T20:36:57.157Z,2.00
2022-09-07T20:39:29.839Z,2.60
2022-09-07T20:41:56.362Z,2.35
2022-09-07T20:44:22.803Z,2.33
2022-09-07T20:46:49.305Z,2.70
2022-09-07T20:49:17.869Z,2.80
2022-09-07T20:51:44.424Z,2.80
2022-09-07T20:54:12.355Z,2.70
2022-09-07T20:56:38.863Z,2.85
2022-09-07T20:59:08.000Z,2.50
2022-09-07T21:01:36.839Z,2.67
2022-09-07T21:04:06.373Z,2.47
2022-09-07T21:06:35.190Z,2.85
2022-09-07T21:09:01.654Z,3.00
2022-09-07T21:11:31.071Z,2.60
2022-09-07T21:14:06.245Z,2.35
2022-09-07T21:16:36.389Z,2.20
2022-09-07T21:19:08.029Z,2.22
2022-09-07T21:21:38.558Z,2.10
2022-09-07T21:24:09.017Z,2.38
2022-09-07T21:26:35.517Z,2.50
2022-09-07T21:29:03.814Z,2.42
2022-09-07T21:31:31.580Z,2.10
2022-09-07T21:34:00.315Z,2.35
2022-09-07T21:36:27.287Z,2.40
2022-09-07T21:38:54.319Z,2.20
2022-09-07T21:41:23.934Z,2.45
2022-09-07T21:43:58.114Z,2.38
2022-09-07T21:46:25.019Z,2.08
2022-09-07T21:49:57.395Z,2.13
2022-09-07T21:51:41.751Z,2.47
2022-09-07T21:54:11.633Z,2.40
2022-09-07T21:56:39.432Z,2.17
2022-09-07T21:59:11.758Z,1.60
2022-09-07T22:01:41.665Z,2.45
2022-09-07T22:04:08.188Z,1.67
2022-09-07T22:06:34.919Z,2.00
2022-09-07T22:09:01.979Z,1.90
2022-09-07T22:11:29.580Z,1.70
2022-09-07T22:14:02.755Z,1.88
2022-09-07T22:16:30.116Z,1.80
2022-09-07T22:18:57.238Z,1.90
2022-09-07T22:21:30.566Z,1.65
2022-09-07T22:23:59.912Z,2.10
2022-09-07T22:26:30.727Z,1.70
2022-09-07T22:28:58.265Z,1.55
2022-09-07T22:31:27.078Z,1.90
2022-09-07T22:34:10.753Z,1.88
2022-09-07T22:36:42.560Z,2.13
2022-09-07T22:39:14.828Z,1.77
2022-09-07T22:41:42.520Z,1.73
2022-09-07T22:44:18.549Z,2.50
2022-09-07T22:46:46.107Z,1.80
2022-09-07T22:49:14.373Z,2.45
2022-09-07T22:51:40.843Z,2.00
2022-09-07T22:54:09.833Z,1.75
2022-09-07T22:56:36.558Z,1.73
2022-09-07T22:59:07.845Z,2.05
2022-09-07T23:01:35.863Z,2.38
2022-09-07T23:04:03.359Z,2.13
2022-09-07T23:06:52.718Z,1.80
2022-09-07T23:09:21.789Z,2.13
2022-09-07T23:11:48.287Z,2.30
2022-09-07T23:14:19.726Z,1.98
2022-09-07T23:16:50.969Z,2.10
2022-09-07T23:19:21.476Z,1.90
2022-09-07T23:21:49.471Z,1.80
2022-09-07T23:24:17.625Z,1.77
2022-09-07T23:26:44.301Z,1.83
2022-09-07T23:29:12.030Z,2.05
2022-09-07T23:31:40.858Z,2.13
2022-09-07T23:34:12.583Z,1.70
2022-09-07T23:36:39.190Z,2.47
2022-09-07T23:39:06.026Z,1.52
2022-09-07T23:41:32.739Z,1.48
2022-09-07T23:44:02.999Z,1.65
2022-09-07T23:46:29.670Z,1.95
2022-09-07T23:48:56.280Z,1.27
2022-09-07T23:51:24.589Z,2.13
2022-09-07T23:53:52.154Z,1.70
2022-09-07T23:59:33.822Z,1.75
